Time;durP1;ratioP1;P1;durP2;ratioP2;P2;SDS_P1;SDS_P2;PMS_P1;PMS_P2;Temp;Humidity;BMP_temperature;BMP_pressure;BME280_temperature;BME280_humidity;BME280_pressure;Samples;Min_cycle;Max_cycle;Signal;HPM_P1;HPM_P2
2023/06/14 07:01:20;;;;;;;0.30;0.20;;;28.60;96.00;30.90;101508.00;;;;6163663;22;1288371;-71
2023/06/14 07:04:15;;;;;;;0.10;0.10;;;28.40;95.20;32.00;101530.00;;;;6215619;23;20166;-72
2023/06/14 07:06:42;;;;;;;1.27;1.17;;;28.90;94.70;28.70;101544.00;;;;6215902;23;20571;-71
2023/06/14 07:09:12;;;;;;;0.10;0.10;;;28.00;94.70;33.30;101514.00;;;;6215865;23;20139;-72
2023/06/14 07:11:43;;;;;;;0.32;0.32;;;28.70;95.20;32.90;101485.00;;;;6215942;23;20146;-72
2023/06/14 07:14:12;;;;;;;0.57;0.57;;;28.90;95.00;34.40;101511.00;;;;6216464;23;20139;-72
2023/06/14 07:16:38;;;;;;;0.10;0.10;;;30.30;94.10;33.60;101512.00;;;;6190936;23;20493;-72
2023/06/14 07:19:04;;;;;;;4.55;3.40;;;30.40;93.60;36.00;101508.00;;;;6190833;23;20150;-72
2023/06/14 07:21:34;;;;;;;0.20;0.20;;;31.70;92.30;31.60;101522.00;;;;6215894;23;20216;-72
2023/06/14 07:24:06;;;;;;;2.58;0.63;;;30.10;92.40;31.90;101544.00;;;;6191372;23;20237;-72
2023/06/14 07:26:33;;;;;;;0.68;0.68;;;29.40;92.90;30.60;101526.00;;;;6215719;23;20139;-72
2023/06/14 07:29:01;;;;;;;0.10;0.10;;;28.10;94.20;35.00;101519.00;;;;6190597;23;20181;-72
2023/06/14 07:31:32;;;;;;;0.10;0.10;;;29.90;94.00;35.40;101522.00;;;;6215763;23;20189;-72
2023/06/14 07:34:00;;;;;;;0.28;0.28;;;31.40;91.90;33.90;101535.00;;;;6216211;23;20192;-72
2023/06/14 07:36:26;;;;;;;0.60;0.32;;;30.60;92.30;34.00;101527.00;;;;6215916;23;20230;-72
2023/06/14 07:38:52;;;;;;;0.68;0.68;;;31.20;91.20;33.90;101535.00;;;;6217534;23;20274;-72
2023/06/14 07:41:18;;;;;;;0.68;0.65;;;30.70;91.50;30.90;101546.00;;;;6214335;23;20154;-71
2023/06/14 07:43:51;;;;;;;1.55;1.38;;;29.50;91.80;30.90;101502.00;;;;6190782;23;20178;-71
2023/06/14 07:46:19;;;;;;;0.73;0.73;;;28.90;92.30;30.10;101543.00;;;;6216008;23;20159;-71
2023/06/14 07:48:45;;;;;;;1.08;1.08;;;28.20;92.70;31.10;101493.00;;;;6190633;23;20347;-71
2023/06/14 07:51:10;;;;;;;0.20;0.20;;;28.20;93.30;35.50;101535.00;;;;6215631;23;20147;-72
2023/06/14 07:53:39;;;;;;;0.30;0.30;;;30.40;93.10;34.70;101537.00;;;;6215412;23;20154;-72
2023/06/14 07:56:05;;;;;;;0.32;0.32;;;30.90;91.90;36.70;101526.00;;;;6215581;23;20149;-72
2023/06/14 07:58:33;;;;;;;0.52;0.52;;;32.20;90.80;33.80;101543.00;;;;6215642;23;20590;-72
2023/06/14 08:01:05;;;;;;;0.60;0.60;;;31.90;90.20;34.80;101541.00;;;;6215434;23;20170;-72
2023/06/14 08:03:37;;;;;;;0.55;0.55;;;31.70;90.80;35.40;101531.00;;;;6215524;23;20174;-72
2023/06/14 08:06:17;;;;;;;2.20;1.25;;;31.50;91.20;34.70;101501.00;;;;6190420;23;20182;-72
2023/06/14 08:08:46;;;;;;;0.43;0.43;;;32.40;90.30;33.10;101550.00;;;;6215764;23;20154;-72
2023/06/14 08:11:12;;;;;;;0.52;0.52;;;31.20;90.60;32.70;101555.00;;;;6215271;23;20225;-72
2023/06/14 08:13:38;;;;;;;0.45;0.38;;;30.40;91.40;34.50;101557.00;;;;6190369;23;20216;-72
2023/06/14 08:16:05;;;;;;;2.35;2.15;;;31.30;91.20;35.70;101536.00;;;;6215520;23;20142;-72
2023/06/14 08:18:37;;;;;;;2.13;1.15;;;32.00;90.60;34.20;101552.00;;;;6215287;23;20147;-72
2023/06/14 08:21:02;;;;;;;2.15;1.38;;;32.00;90.20;32.00;101563.00;;;;6215575;23;20160;-72
2023/06/14 08:23:30;;;;;;;1.63;1.52;;;30.10;91.10;33.80;101533.00;;;;6216616;23;20166;-72
2023/06/14 08:25:57;;;;;;;2.00;1.85;;;30.90;90.80;35.50;101535.00;;;;6190512;23;20643;-72
2023/06/14 08:28:28;;;;;;;1.25;1.15;;;31.30;90.80;35.80;101546.00;;;;6190296;23;20212;-72
2023/06/14 08:31:15;;;;;;;0.82;0.82;;;32.50;90.60;34.00;101520.00;;;;6190147;23;20169;-72
2023/06/14 08:33:43;;;;;;;0.77;0.77;;;31.00;90.80;33.50;101551.00;;;;6215472;23;20800;-72
2023/06/14 08:36:11;;;;;;;0.70;0.70;;;31.10;90.70;34.00;101554.00;;;;6190233;23;20212;-72
2023/06/14 08:38:40;;;;;;;1.75;1.33;;;30.90;91.10;36.10;101548.00;;;;6214905;23;20154;-72
2023/06/14 08:41:24;;;;;;;0.65;0.65;;;32.20;90.20;33.90;101557.00;;;;6214971;23;20166;-72
2023/06/14 08:43:58;;;;;;;1.42;1.30;;;31.10;90.60;33.60;101561.00;;;;6190795;23;20533;-72
2023/06/14 08:46:27;;;;;;;1.27;1.17;;;31.00;90.00;32.60;101524.00;;;;6214880;23;20157;-71
2023/06/14 08:48:56;;;;;;;0.45;0.45;;;30.00;90.80;30.60;101539.00;;;;6215461;23;20139;-72
2023/06/14 08:51:26;;;;;;;0.40;0.28;;;29.00;91.10;31.10;101559.00;;;;6190073;23;20154;-71
2023/06/14 08:54:10;;;;;;;1.65;1.35;;;28.60;92.00;33.60;101554.00;;;;6215494;23;20260;-71
2023/06/14 08:56:59;;;;;;;1.55;1.25;;;29.50;92.10;31.10;101579.00;;;;6214835;23;20495;-72
2023/06/14 08:59:28;;;;;;;4.32;2.22;;;29.00;91.10;31.70;101576.00;;;;6189554;23;20249;-72
2023/06/14 09:01:55;;;;;;;1.05;0.95;;;29.40;91.00;32.20;101572.00;;;;6214303;23;20507;-72
2023/06/14 09:04:29;;;;;;;3.40;1.77;;;29.50;91.70;32.00;101570.00;;;;6215212;23;20201;-72
2023/06/14 09:07:07;;;;;;;2.63;1.58;;;29.70;91.00;31.20;101561.00;;;;6216478;23;20149;-72
2023/06/14 09:09:34;;;;;;;3.03;1.65;;;29.00;91.30;31.30;101567.00;;;;6216286;23;20142;-72
2023/06/14 09:12:12;;;;;;;1.13;1.13;;;28.90;91.40;31.20;101546.00;;;;6214244;23;20166;-71
2023/06/14 09:14:45;;;;;;;1.75;1.65;;;28.40;92.30;31.40;101570.00;;;;6190119;23;20185;-72
2023/06/14 09:17:15;;;;;;;0.28;0.28;;;28.80;91.90;33.50;101551.00;;;;6214249;23;20201;-72
2023/06/14 09:19:45;;;;;;;0.30;0.30;;;29.90;91.70;33.40;101539.00;;;;6214463;23;20151;-72
2023/06/14 09:22:18;;;;;;;2.20;1.88;;;30.50;90.90;32.40;101578.00;;;;6216267;23;20170;-72
2023/06/14 09:24:56;;;;;;;10.55;4.70;;;30.30;91.50;31.50;101582.00;;;;6189704;23;20216;-72
2023/06/14 09:27:22;;;;;;;3.03;2.40;;;29.70;90.50;31.60;101573.00;;;;6214889;23;20138;-72
2023/06/14 09:29:51;;;;;;;1.45;1.08;;;29.40;91.40;32.80;101567.00;;;;6214753;23;20153;-72
2023/06/14 09:32:18;;;;;;;4.50;3.97;;;29.30;91.60;30.60;101597.00;;;;6214423;23;20146;-72
2023/06/14 09:34:46;;;;;;;1.10;1.08;;;29.50;91.10;32.70;101585.00;;;;6214754;23;20162;-72
2023/06/14 09:37:12;;;;;;;1.15;1.08;;;29.60;91.30;32.40;101587.00;;;;6189415;23;20150;-72
2023/06/14 09:39:50;;;;;;;1.85;1.40;;;29.90;90.50;30.90;101594.00;;;;6214512;23;20139;-72
2023/06/14 09:42:19;;;;;;;0.20;0.20;;;29.10;90.80;32.40;101581.00;;;;6214723;23;20257;-72
2023/06/14 09:44:55;;;;;;;0.20;0.20;;;29.10;90.90;33.30;101583.00;;;;6214249;23;20139;-72
2023/06/14 09:47:23;;;;;;;0.10;0.10;;;30.00;90.40;33.50;101565.00;;;;6215461;23;20477;-72
2023/06/14 09:49:50;;;;;;;1.98;1.83;;;30.30;89.60;33.90;101572.00;;;;6189000;23;20220;-72
2023/06/14 09:52:20;;;;;;;0.47;0.47;;;30.70;88.70;33.50;101583.00;;;;6213290;23;20158;-72
2023/06/14 09:55:24;;;;;;;0.45;0.40;;;30.70;87.30;31.80;101592.00;;;;6213996;23;20142;-72
2023/06/14 09:58:02;;;;;;;2.25;0.85;;;29.60;88.50;31.80;101601.00;;;;6189451;23;20154;-72
2023/06/14 10:00:39;;;;;;;3.72;1.00;;;29.10;89.70;32.70;101585.00;;;;6213846;23;20170;-72
2023/06/14 10:03:22;;;;;;;0.20;0.20;;;29.70;86.40;32.30;101594.00;;;;6188485;23;20189;-72
2023/06/14 10:06:14;;;;;;;0.70;0.70;;;29.10;87.10;33.60;101578.00;;;;6189000;23;20162;-72
2023/06/14 10:08:43;;;;;;;1.00;0.95;;;30.00;86.40;33.30;101590.00;;;;6189294;23;20150;-73
2023/06/14 10:11:21;;;;;;;2.83;1.70;;;30.40;85.90;32.70;101589.00;;;;6189621;23;20229;-75
2023/06/14 10:13:50;;;;;;;3.55;2.78;;;30.60;85.20;30.80;101561.00;;;;6188942;23;20257;-74
2023/06/14 10:16:35;;;;;;;1.60;1.50;;;29.30;85.40;31.30;101589.00;;;;6189132;23;20599;-72
2023/06/14 10:19:34;;;;;;;2.22;2.13;;;29.00;86.10;31.40;101598.00;;;;6215713;23;20185;-73
2023/06/14 10:33:27;;;;;;;4.38;1.35;;;28.30;85.10;30.00;101587.00;;;;5128439;27;20966;-72
2023/06/14 10:36:22;;;;;;;4.55;2.20;;;28.40;85.40;30.00;101591.00;;;;5098009;28;20287;-72
2023/06/14 10:39:17;;;;;;;0.90;0.90;;;28.60;85.70;29.60;101599.00;;;;5109402;28;20550;-72
2023/06/14 10:41:53;;;;;;;0.80;0.80;;;28.70;84.80;31.40;101585.00;;;;5107998;28;20184;-72
2023/06/14 10:44:22;;;;;;;0.98;0.98;;;28.70;85.50;33.60;101574.00;;;;5108398;28;20188;-72
2023/06/14 10:46:52;;;;;;;0.95;0.95;;;29.60;86.70;32.80;101576.00;;;;5110505;28;20184;-71
2023/06/14 10:49:50;;;;;;;1.33;1.30;;;30.00;85.00;33.50;101571.00;;;;5098076;28;20661;-72
2023/06/14 10:52:20;;;;;;;1.30;1.30;;;30.80;84.50;32.30;101553.00;;;;5099774;28;20196;-72
2023/06/14 10:55:05;;;;;;;5.50;3.47;;;30.00;82.60;31.10;101555.00;;;;5096316;28;20643;-72
2023/06/14 10:57:40;;;;;;;0.60;0.43;;;29.60;82.50;34.70;101576.00;;;;5106510;28;20180;-72
2023/06/14 11:00:12;;;;;;;0.93;0.88;;;30.70;83.50;35.30;101577.00;;;;5099219;28;20183;-71
2023/06/14 11:03:31;;;;;;;1.63;1.52;;;31.70;81.60;33.10;101568.00;;;;5101609;28;20192;-72
2023/06/14 11:06:23;;;;;;;0.10;0.10;;;30.60;79.20;35.60;101515.00;;;;5106258;28;20187;-72
2023/06/14 11:09:24;;;;;;;0.20;0.20;;;31.70;79.50;36.60;101536.00;;;;5080795;28;20229;-72
2023/06/14 11:11:58;;;;;;;0.17;0.17;;;33.10;78.70;36.70;101536.00;;;;5091912;28;20564;-72
2023/06/14 11:14:33;;;;;;;0.10;0.10;;;33.20;76.60;33.90;101535.00;;;;5107724;28;20184;-70
2023/06/14 11:17:02;;;;;;;0.95;0.95;;;32.60;76.20;36.10;101519.00;;;;5108681;28;20179;-70
2023/06/14 11:19:32;;;;;;;0.52;0.20;;;32.70;74.20;35.50;101530.00;;;;5091944;28;20199;-70
2023/06/14 11:22:01;;;;;;;1.75;1.65;;;32.80;74.70;32.90;101537.00;;;;5109085;28;20182;-72
2023/06/14 11:24:27;;;;;;;0.17;0.17;;;31.90;73.70;35.30;101535.00;;;;5108591;28;20181;-67
2023/06/14 11:27:01;;;;;;;5.72;1.83;;;32.10;74.00;31.80;101546.00;;;;5109461;28;20237;-71
2023/06/14 11:29:34;;;;;;;1.25;1.15;;;31.10;75.10;32.10;101539.00;;;;5108571;28;20179;-72
2023/06/14 11:32:00;;;;;;;0.50;0.50;;;30.40;75.00;31.60;101548.00;;;;5109569;28;20229;-72
2023/06/14 11:34:26;;;;;;;1.67;1.08;;;29.80;75.70;31.60;101532.00;;;;5108259;28;20177;-71
2023/06/14 11:36:55;;;;;;;0.43;0.43;;;29.50;76.40;33.80;101502.00;;;;5110045;28;20177;-71
2023/06/14 11:39:26;;;;;;;1.10;1.02;;;30.50;78.20;32.90;101523.00;;;;5091399;28;20193;-72
2023/06/14 11:41:55;;;;;;;1.55;1.45;;;30.80;75.10;34.40;101527.00;;;;5090905;28;20184;-72
2023/06/14 11:44:29;;;;;;;0.30;0.30;;;31.20;75.70;34.70;101511.00;;;;5095972;28;20181;-72
2023/06/14 11:46:56;;;;;;;0.40;0.38;;;31.90;75.20;33.60;101522.00;;;;5094687;28;20266;-72
2023/06/14 11:49:24;;;;;;;0.35;0.35;;;31.70;74.20;34.90;101495.00;;;;5094484;28;21006;-72
2023/06/14 11:51:50;;;;;;;0.95;0.95;;;31.40;74.30;34.10;101515.00;;;;5093044;28;20201;-72
2023/06/14 11:54:19;;;;;;;0.20;0.20;;;31.50;72.20;33.90;101513.00;;;;5093207;28;20184;-72
2023/06/14 11:56:45;;;;;;;2.53;1.13;;;31.00;74.70;33.20;101524.00;;;;5083458;28;20187;-72
2023/06/14 11:59:14;;;;;;;1.20;1.20;;;31.10;74.30;35.10;101519.00;;;;5076102;28;20191;-72
2023/06/14 12:01:45;;;;;;;2.40;2.30;;;31.10;74.10;34.10;101507.00;;;;5094084;28;20594;-72
2023/06/14 12:04:11;;;;;;;0.85;0.85;;;31.10;74.80;35.30;101499.00;;;;5094474;28;20193;-71
2023/06/14 12:06:49;;;;;;;1.02;0.57;;;31.40;74.10;33.30;101531.00;;;;5093187;28;20184;-72
2023/06/14 12:09:26;;;;;;;2.35;1.45;;;31.00;73.50;33.50;101503.00;;;;5094001;28;20717;-72
2023/06/14 12:12:02;;;;;;;1.80;1.70;;;30.30;73.10;33.30;101534.00;;;;5077775;28;20269;-72
2023/06/14 12:14:47;;;;;;;0.17;0.17;;;29.90;74.50;33.40;101529.00;;;;5089321;28;20267;-72
2023/06/14 12:17:17;;;;;;;1.27;0.70;;;29.80;72.30;32.60;101504.00;;;;5083765;28;20196;-72
2023/06/14 12:19:46;;;;;;;1.55;1.08;;;29.90;72.30;31.90;101539.00;;;;5075528;28;20193;-72
2023/06/14 12:22:17;;;;;;;0.10;0.10;;;29.10;73.30;32.90;101533.00;;;;5083790;28;20204;-72
2023/06/14 12:24:43;;;;;;;1.35;1.25;;;29.30;73.20;33.10;101531.00;;;;5080739;28;20203;-72
2023/06/14 12:27:18;;;;;;;0.10;0.10;;;29.60;73.50;32.70;101534.00;;;;5082916;28;20197;-71
2023/06/14 12:30:05;;;;;;;0.22;0.22;;;29.30;73.60;32.10;101538.00;;;;5094977;28;20187;-71
2023/06/14 12:32:36;;;;;;;1.05;0.82;;;29.20;74.20;31.50;101490.00;;;;5093633;28;20682;-71
2023/06/14 12:35:28;;;;;;;2.70;1.88;;;28.90;73.50;31.00;101545.00;;;;5082406;28;20197;-71
2023/06/14 12:38:17;;;;;;;0.30;0.30;;;28.60;74.10;32.10;101549.00;;;;5089557;28;20338;-71
2023/06/14 12:40:48;;;;;;;0.75;0.50;;;28.60;75.20;31.40;101529.00;;;;5087306;28;20319;-71
2023/06/14 12:43:17;;;;;;;0.10;0.10;;;28.40;75.00;32.40;101539.00;;;;5076873;28;20181;-71
2023/06/14 12:45:49;;;;;;;0.10;0.10;;;28.60;75.00;33.50;101494.00;;;;5072505;28;20185;-71
2023/06/14 12:48:15;;;;;;;0.70;0.68;;;29.20;74.50;32.00;101531.00;;;;5073566;28;20185;-71
2023/06/14 12:50:48;;;;;;;2.88;2.22;;;29.00;75.50;30.50;101543.00;;;;5094713;28;20181;-71
2023/06/14 12:53:17;;;;;;;2.53;0.45;;;28.50;76.00;32.30;101535.00;;;;5087790;28;20196;-71
2023/06/14 12:55:48;;;;;;;0.10;0.10;;;28.60;75.80;32.40;101540.00;;;;5075692;28;20325;-71
2023/06/14 12:58:19;;;;;;;1.10;1.10;;;28.70;75.70;32.50;101539.00;;;;5082143;28;20188;-71
2023/06/14 13:00:49;;;;;;;0.80;0.80;;;28.80;75.10;32.50;101531.00;;;;5093856;28;20293;-72
2023/06/14 13:03:20;;;;;;;0.70;0.50;;;28.80;75.00;31.60;101497.00;;;;5093537;28;20242;-72
2023/06/14 13:05:46;;;;;;;6.70;1.10;;;28.50;75.60;31.10;101539.00;;;;5090148;28;20664;-75
2023/06/14 13:08:14;;;;;;;2.35;1.23;;;28.40;74.70;30.60;101536.00;;;;5092827;28;20271;-74
2023/06/14 13:10:50;;;;;;;0.20;0.20;;;28.20;74.80;31.50;101539.00;;;;5084147;28;20271;-67
2023/06/14 13:13:18;;;;;;;0.32;0.30;;;28.30;75.50;30.80;101532.00;;;;5088884;28;20276;-71
2023/06/14 13:15:45;;;;;;;1.10;1.10;;;27.90;75.20;30.90;101544.00;;;;5086245;28;20775;-71
2023/06/14 13:18:13;;;;;;;0.32;0.32;;;28.00;74.70;31.80;101534.00;;;;5081106;28;20239;-72
2023/06/14 13:20:45;;;;;;;1.52;1.42;;;28.30;74.60;30.70;101540.00;;;;5084616;28;20173;-72
2023/06/14 13:23:14;;;;;;;0.70;0.70;;;28.20;72.80;30.50;101537.00;;;;5082280;28;20204;-72
2023/06/14 13:25:48;;;;;;;1.63;1.20;;;27.90;71.90;30.90;101550.00;;;;5090538;28;20169;-72
2023/06/14 13:28:15;;;;;;;0.82;0.82;;;28.00;72.50;31.00;101531.00;;;;5090337;28;20210;-74
2023/06/14 13:30:55;;;;;;;0.35;0.35;;;28.20;73.40;32.30;101540.00;;;;5092036;28;20191;-74
2023/06/14 13:33:21;;;;;;;0.85;0.63;;;28.60;73.70;31.10;101536.00;;;;5081573;28;20557;-75
2023/06/14 13:35:52;;;;;;;0.40;0.40;;;28.40;73.00;31.40;101538.00;;;;5093619;28;20230;-75
2023/06/14 13:38:21;;;;;;;1.42;1.33;;;28.20;73.50;30.50;101544.00;;;;5063837;28;20663;-76
2023/06/14 13:40:47;;;;;;;1.55;0.95;;;28.10;71.80;30.60;101515.00;;;;5082030;28;20198;-76
2023/06/14 13:43:13;;;;;;;1.45;1.20;;;28.10;70.80;30.00;101539.00;;;;5081215;28;20193;-73
2023/06/14 13:45:43;;;;;;;0.10;0.10;;;27.90;71.00;31.20;101532.00;;;;5064599;28;20181;-76
2023/06/14 13:48:13;;;;;;;0.30;0.30;;;28.00;71.40;32.10;101536.00;;;;5080216;28;20200;-75
2023/06/14 13:50:38;;;;;;;0.10;0.10;;;28.50;71.60;32.00;101536.00;;;;5080829;28;20655;-76
2023/06/14 13:53:04;;;;;;;0.57;0.57;;;28.60;70.30;31.80;101533.00;;;;5081851;28;20382;-75
2023/06/14 13:55:30;;;;;;;0.20;0.20;;;28.50;70.60;31.30;101536.00;;;;5082463;28;20200;-75
2023/06/14 13:57:59;;;;;;;0.20;0.20;;;28.40;70.50;31.90;101530.00;;;;5082258;28;20205;-75
2023/06/14 14:00:26;;;;;;;0.10;0.10;;;28.40;70.50;31.30;101530.00;;;;5086977;28;20193;-75
2023/06/14 14:03:05;;;;;;;0.20;0.20;;;28.40;70.20;31.80;101520.00;;;;5079298;28;20190;-74
2023/06/14 14:05:33;;;;;;;0.68;0.68;;;28.40;70.90;30.30;101540.00;;;;5079486;28;20193;-74
2023/06/14 14:08:03;;;;;;;0.10;0.10;;;28.10;69.70;31.00;101524.00;;;;5062932;28;20192;-75
2023/06/14 14:10:33;;;;;;;0.20;0.20;;;27.80;70.00;31.30;101534.00;;;;5097773;28;20197;-73
2023/06/14 14:12:59;;;;;;;3.00;2.80;;;28.00;69.80;31.50;101527.00;;;;5078977;28;20200;-72
2023/06/14 14:15:32;;;;;;;1.27;1.17;;;28.20;70.10;31.80;101539.00;;;;5080407;28;20242;-72
2023/06/14 14:18:01;;;;;;;0.47;0.47;;;28.20;71.00;32.00;101538.00;;;;5064770;28;20679;-72
2023/06/14 14:20:31;;;;;;;0.63;0.63;;;28.30;69.50;30.80;101535.00;;;;5078482;28;20187;-73
2023/06/14 14:22:57;;;;;;;1.83;1.00;;;28.20;69.10;30.90;101537.00;;;;5079011;28;20268;-72
2023/06/14 14:25:33;;;;;;;0.20;0.20;;;28.00;70.20;30.90;101528.00;;;;5081738;28;20610;-71
2023/06/14 14:28:05;;;;;;;3.97;0.52;;;27.80;71.00;29.60;101546.00;;;;5080123;28;20196;-72
2023/06/14 14:30:49;;;;;;;0.10;0.10;;;27.60;69.00;30.70;101529.00;;;;5079144;28;20248;-72
2023/06/14 14:33:22;;;;;;;0.60;0.60;;;27.60;69.90;30.30;101544.00;;;;5078788;28;20220;-71
2023/06/14 14:35:52;;;;;;;0.95;0.90;;;27.70;69.70;29.90;101512.00;;;;5079323;28;20185;-71
2023/06/14 14:38:22;;;;;;;0.88;0.88;;;27.60;69.90;30.20;101544.00;;;;5081665;28;20173;-73
2023/06/14 14:41:12;;;;;;;0.90;0.57;;;27.60;69.90;30.30;101543.00;;;;5079763;28;20173;-73
2023/06/14 14:43:41;;;;;;;3.13;1.05;;;27.60;70.00;29.90;101563.00;;;;5082180;28;20217;-72
2023/06/14 14:46:32;;;;;;;0.40;0.30;;;27.50;68.60;30.40;101550.00;;;;5079472;28;20254;-75
2023/06/14 14:49:18;;;;;;;0.52;0.52;;;27.50;68.70;30.20;101542.00;;;;5071071;28;20225;-74
2023/06/14 14:51:47;;;;;;;0.20;0.20;;;27.50;68.50;31.00;101542.00;;;;5080617;28;20225;-74
2023/06/14 14:54:16;;;;;;;0.32;0.32;;;27.60;69.90;30.30;101537.00;;;;5079218;28;20200;-74
2023/06/14 14:57:02;;;;;;;0.70;0.70;;;27.60;69.50;29.90;101556.00;;;;5080799;28;20703;-75
2023/06/14 14:59:30;;;;;;;0.30;0.30;;;27.60;68.80;30.50;101546.00;;;;5061753;28;20204;-72
2023/06/14 15:02:02;;;;;;;0.47;0.47;;;27.50;68.30;30.10;101548.00;;;;5078938;28;20296;-72
2023/06/14 15:04:33;;;;;;;0.90;0.65;;;27.20;69.40;30.30;101506.00;;;;5080101;28;20304;-72
2023/06/14 15:07:01;;;;;;;1.05;0.70;;;27.40;70.00;30.90;101536.00;;;;5079956;28;20635;-69
2023/06/14 15:09:32;;;;;;;4.93;0.98;;;27.60;69.20;30.10;101549.00;;;;5086091;28;20173;-71
2023/06/14 15:12:00;;;;;;;0.70;0.70;;;27.50;69.30;29.60;101541.00;;;;5079826;28;20205;-70
2023/06/14 15:14:28;;;;;;;0.22;0.22;;;27.20;70.80;30.20;101543.00;;;;5095666;28;20193;-76
2023/06/14 15:17:02;;;;;;;0.35;0.35;;;27.30;69.80;31.20;101506.00;;;;5080321;28;20200;-73
2023/06/14 15:19:34;;;;;;;0.25;0.25;;;27.50;70.50;30.80;101536.00;;;;5065687;28;20193;-72
2023/06/14 15:22:05;;;;;;;0.20;0.20;;;27.50;69.70;31.20;101538.00;;;;5080914;28;20188;-72
2023/06/14 15:24:37;;;;;;;0.10;0.10;;;27.60;69.50;31.40;101519.00;;;;5083567;28;20221;-72
2023/06/14 15:27:05;;;;;;;0.20;0.20;;;27.60;71.00;30.90;101531.00;;;;5107788;28;20181;-72
2023/06/14 15:29:34;;;;;;;0.32;0.32;;;27.60;70.20;30.90;101551.00;;;;5099920;28;20197;-72
2023/06/14 15:32:06;;;;;;;0.75;0.47;;;27.60;69.60;31.70;101532.00;;;;5080731;28;20220;-71
2023/06/14 15:34:39;;;;;;;0.80;0.80;;;27.70;70.20;30.80;101549.00;;;;5083407;28;20185;-71
2023/06/14 15:37:13;;;;;;;0.22;0.22;;;27.70;70.00;30.70;101537.00;;;;5083187;28;20185;-71
2023/06/14 15:39:48;;;;;;;0.28;0.28;;;27.40;71.10;31.00;101527.00;;;;5082298;28;20553;-71
2023/06/14 15:42:16;;;;;;;0.10;0.10;;;27.50;71.10;31.10;101522.00;;;;5083339;28;20667;-71
2023/06/14 15:44:47;;;;;;;0.90;0.73;;;27.50;70.60;29.40;101512.00;;;;5083343;28;20982;-72
2023/06/14 15:47:21;;;;;;;0.38;0.38;;;27.10;70.70;29.60;101542.00;;;;5083200;28;20284;-70
2023/06/14 15:49:57;;;;;;;0.73;0.73;;;26.90;71.00;30.30;101531.00;;;;5082311;28;20197;-71
2023/06/14 15:52:32;;;;;;;0.70;0.70;;;27.20;70.30;30.30;101528.00;;;;5081149;28;20211;-71
2023/06/14 15:55:04;;;;;;;0.82;0.77;;;27.30;70.30;29.60;101538.00;;;;5065081;28;20185;-72
2023/06/14 15:57:36;;;;;;;1.60;0.93;;;27.20;69.70;28.80;101496.00;;;;5081069;28;20197;-70
2023/06/14 16:00:05;;;;;;;0.20;0.20;;;26.90;69.50;30.60;101521.00;;;;5083254;28;20188;-72
2023/06/14 16:02:37;;;;;;;0.45;0.40;;;26.90;70.30;30.60;101526.00;;;;5099242;28;20204;-71
2023/06/14 16:05:06;;;;;;;0.45;0.45;;;27.20;70.50;30.00;101529.00;;;;5082775;28;20554;-71
2023/06/14 16:07:41;;;;;;;2.30;0.65;;;27.20;71.40;28.90;101547.00;;;;5083235;28;20197;-72
2023/06/14 16:10:12;;;;;;;0.30;0.30;;;26.80;72.30;30.00;101532.00;;;;5082866;28;20227;-71
2023/06/14 16:12:41;;;;;;;0.32;0.32;;;26.80;73.40;29.30;101537.00;;;;5064315;28;20201;-71
2023/06/14 16:15:10;;;;;;;0.15;0.15;;;26.90;71.60;30.30;101523.00;;;;5106998;28;20193;-71
2023/06/14 16:17:42;;;;;;;0.28;0.28;;;26.90;72.70;30.70;101487.00;;;;5084427;28;20777;-70
2023/06/14 16:20:12;;;;;;;0.30;0.30;;;27.10;72.70;30.40;101521.00;;;;5082252;28;20673;-71
2023/06/14 16:22:40;;;;;;;0.50;0.50;;;27.20;71.20;30.50;101512.00;;;;5083269;28;20280;-70
2023/06/14 16:25:13;;;;;;;0.65;0.40;;;27.20;72.00;28.80;101503.00;;;;5083447;28;20411;-70
2023/06/14 16:27:41;;;;;;;0.60;0.47;;;26.80;71.30;29.10;101536.00;;;;5073139;28;20538;-71
2023/06/14 16:30:16;;;;;;;0.10;0.10;;;26.60;72.10;30.50;101527.00;;;;5065451;28;20196;-71
2023/06/14 16:32:45;;;;;;;0.10;0.10;;;26.80;72.50;30.70;101527.00;;;;5081209;28;20295;-71
2023/06/14 16:35:19;;;;;;;0.20;0.20;;;27.20;73.20;30.00;101537.00;;;;5081584;28;20204;-71
2023/06/14 16:38:09;;;;;;;0.35;0.35;;;27.10;72.80;29.90;101538.00;;;;5099411;28;20185;-71
2023/06/14 16:40:37;;;;;;;0.70;0.70;;;27.00;72.70;29.40;101543.00;;;;5078392;28;20551;-70
2023/06/14 16:43:21;;;;;;;0.10;0.10;;;26.90;73.20;29.20;101533.00;;;;5081432;28;20215;-74
2023/06/14 16:45:58;;;;;;;1.00;0.60;;;26.60;72.90;29.80;101533.00;;;;5080813;28;20238;-71
2023/06/14 16:48:33;;;;;;;0.75;0.75;;;26.80;73.40;29.40;101544.00;;;;5080017;28;20545;-72
2023/06/14 16:51:00;;;;;;;0.77;0.77;;;26.80;73.70;28.60;101548.00;;;;5082699;28;20192;-73
2023/06/14 16:53:35;;;;;;;0.40;0.40;;;26.50;73.40;28.90;101551.00;;;;5081889;28;20204;-71
2023/06/14 16:56:08;;;;;;;0.20;0.20;;;26.40;73.80;29.20;101540.00;;;;5066363;28;20181;-71
2023/06/14 16:58:53;;;;;;;0.20;0.20;;;26.40;74.20;29.10;101549.00;;;;5082400;28;20650;-72
2023/06/14 17:01:20;;;;;;;0.40;0.40;;;26.50;73.30;29.90;101545.00;;;;5080773;28;20373;-73
2023/06/14 17:03:47;;;;;;;0.30;0.30;;;26.50;74.10;28.90;101551.00;;;;5080958;28;20200;-72
2023/06/14 17:06:23;;;;;;;0.10;0.10;;;26.40;72.80;30.00;101552.00;;;;5081396;28;20192;-73
2023/06/14 17:08:57;;;;;;;0.45;0.45;;;26.40;73.60;29.20;101552.00;;;;5083688;28;20169;-72
2023/06/14 17:11:23;;;;;;;0.10;0.10;;;26.60;74.20;29.70;101550.00;;;;5082952;28;20253;-72
2023/06/14 17:13:57;;;;;;;0.90;0.52;;;26.50;74.40;29.90;101557.00;;;;5081567;28;20330;-72
2023/06/14 17:16:26;;;;;;;0.25;0.25;;;26.70;74.50;30.80;101549.00;;;;5065174;28;20188;-71
2023/06/14 17:18:52;;;;;;;0.85;0.68;;;26.90;75.00;29.50;101559.00;;;;5080967;28;20565;-73
2023/06/14 17:21:22;;;;;;;0.93;0.93;;;26.80;74.00;28.40;101545.00;;;;5081048;28;20182;-74
2023/06/14 17:24:06;;;;;;;0.88;0.88;;;26.40;74.00;29.30;101562.00;;;;5063348;28;20681;-76
2023/06/14 17:26:40;;;;;;;2.58;0.47;;;26.40;73.80;28.90;101523.00;;;;5078629;28;20244;-76
2023/06/14 17:29:14;;;;;;;4.38;0.98;;;26.00;73.60;28.10;101571.00;;;;5079064;28;20232;-74
2023/06/14 17:31:52;;;;;;;0.55;0.55;;;25.90;73.10;29.60;101552.00;;;;5080031;28;20217;-74
2023/06/14 17:34:27;;;;;;;0.20;0.20;;;26.00;74.20;30.30;101556.00;;;;5072385;28;20212;-72
2023/06/14 17:37:04;;;;;;;1.52;0.45;;;26.40;73.40;30.40;101551.00;;;;5088117;28;20722;-71
2023/06/14 17:39:34;;;;;;;0.50;0.50;;;26.70;73.20;29.70;101558.00;;;;5080562;28;20209;-70
2023/06/14 17:42:04;;;;;;;0.20;0.20;;;26.60;71.50;30.00;101535.00;;;;5063263;28;20185;-70
2023/06/14 17:44:58;;;;;;;0.82;0.57;;;26.40;71.00;29.90;101559.00;;;;5080014;28;20605;-70
2023/06/14 17:47:28;;;;;;;0.40;0.40;;;26.40;71.90;29.30;101560.00;;;;5074007;28;20285;-70
2023/06/14 17:49:54;;;;;;;0.52;0.52;;;26.40;70.90;28.00;101570.00;;;;5078886;28;20173;-70
2023/06/14 17:52:31;;;;;;;0.20;0.20;;;25.80;71.20;29.60;101568.00;;;;5080897;28;20204;-69
2023/06/14 17:55:14;;;;;;;0.30;0.30;;;26.00;73.10;29.60;101565.00;;;;5081629;28;20238;-70
2023/06/14 17:57:52;;;;;;;0.10;0.10;;;26.10;72.80;30.20;101575.00;;;;5080600;28;20181;-71
2023/06/14 18:00:26;;;;;;;0.20;0.20;;;26.40;72.20;29.90;101562.00;;;;5079572;28;20180;-70
2023/06/14 18:02:59;;;;;;;0.45;0.45;;;26.40;72.60;30.00;101575.00;;;;5080848;28;20184;-69
2023/06/14 18:05:29;;;;;;;0.15;0.15;;;26.40;73.10;29.90;101581.00;;;;5079068;28;20189;-70
2023/06/14 18:08:05;;;;;;;0.63;0.63;;;26.40;74.30;28.90;101587.00;;;;5080476;28;20178;-69
2023/06/14 18:10:35;;;;;;;0.20;0.20;;;26.30;73.50;29.30;101581.00;;;;5082453;28;20628;-68
2023/06/14 18:13:14;;;;;;;0.10;0.10;;;26.00;74.00;29.50;101582.00;;;;5070905;28;20208;-69
2023/06/14 18:15:53;;;;;;;0.17;0.17;;;26.10;74.90;29.10;101588.00;;;;5080103;28;20544;-70
2023/06/14 18:18:21;;;;;;;0.30;0.30;;;26.10;74.60;29.00;101586.00;;;;5083977;28;20643;-72
2023/06/14 18:21:14;;;;;;;0.30;0.30;;;26.00;75.30;30.00;101551.00;;;;5080176;28;20196;-69
2023/06/14 18:23:52;;;;;;;0.20;0.20;;;26.10;75.10;29.10;101582.00;;;;5079334;28;20636;-70